sensor_id;sensor_type;location;lat;lon;timestamp;pressure;altitude;pressure_sealevel;temperature;humidity
68793;BME280;55778;54.346;10.210;2022-09-09T00:02:27;100449.75;;;13.91;100.00
68793;BME280;55778;54.346;10.210;2022-09-09T00:05:27;100452.00;;;13.80;100.00
68793;BME280;55778;54.346;10.210;2022-09-09T00:08:06;100433.03;;;13.70;100.00
68793;BME280;55778;54.346;10.210;2022-09-09T00:11:03;100430.59;;;13.83;100.00
68793;BME280;55778;54.346;10.210;2022-09-09T00:13:50;100428.72;;;13.84;100.00
68793;BME280;55778;54.346;10.210;2022-09-09T00:16:39;100441.56;;;13.75;100.00
68793;BME280;55778;54.346;10.210;2022-09-09T00:19:28;100432.16;;;13.78;100.00
68793;BME280;55778;54.346;10.210;2022-09-09T00:25:03;100425.63;;;13.79;100.00
68793;BME280;55778;54.346;10.210;2022-09-09T00:28:20;100420.97;;;13.87;100.00
68793;BME280;55778;54.346;10.210;2022-09-09T00:31:22;100429.03;;;13.89;100.00
68793;BME280;55778;54.346;10.210;2022-09-09T00:33:48;100430.88;;;14.04;100.00
68793;BME280;55778;54.346;10.210;2022-09-09T00:36:36;100434.50;;;13.97;100.00
68793;BME280;55778;54.346;10.210;2022-09-09T00:39:17;100430.19;;;14.02;100.00
68793;BME280;55778;54.346;10.210;2022-09-09T00:44:39;100426.75;;;14.08;100.00
68793;BME280;55778;54.346;10.210;2022-09-09T00:47:55;100413.41;;;14.05;100.00
68793;BME280;55778;54.346;10.210;2022-09-09T00:51:25;100416.66;;;14.09;100.00
68793;BME280;55778;54.346;10.210;2022-09-09T00:56:47;100416.13;;;14.14;100.00
68793;BME280;55778;54.346;10.210;2022-09-09T00:59:51;100433.06;;;14.25;100.00
68793;BME280;55778;54.346;10.210;2022-09-09T01:02:49;100423.28;;;14.23;100.00
68793;BME280;55778;54.346;10.210;2022-09-09T01:14:44;100429.47;;;14.25;100.00
68793;BME280;55778;54.346;10.210;2022-09-09T01:24:04;100431.19;;;14.18;100.00
68793;BME280;55778;54.346;10.210;2022-09-09T01:26:59;100425.88;;;14.24;100.00
68793;BME280;55778;54.346;10.210;2022-09-09T01:30:19;100405.34;;;14.12;100.00
68793;BME280;55778;54.346;10.210;2022-09-09T01:33:03;100423.16;;;14.24;100.00
68793;BME280;55778;54.346;10.210;2022-09-09T01:36:03;100395.25;;;14.04;100.00
68793;BME280;55778;54.346;10.210;2022-09-09T01:39:04;100418.53;;;14.08;100.00
68793;BME280;55778;54.346;10.210;2022-09-09T01:48:11;100433.59;;;14.13;100.00
68793;BME280;55778;54.346;10.210;2022-09-09T01:50:57;100414.56;;;14.11;100.00
68793;BME280;55778;54.346;10.210;2022-09-09T01:53:31;100430.81;;;14.21;100.00
68793;BME280;55778;54.346;10.210;2022-09-09T01:56:23;100438.19;;;14.20;100.00
68793;BME280;55778;54.346;10.210;2022-09-09T01:59:18;100431.69;;;14.21;100.00
68793;BME280;55778;54.346;10.210;2022-09-09T02:04:49;100434.28;;;14.15;100.00
68793;BME280;55778;54.346;10.210;2022-09-09T02:14:25;100415.44;;;14.12;100.00
68793;BME280;55778;54.346;10.210;2022-09-09T02:17:27;100439.56;;;14.16;100.00
68793;BME280;55778;54.346;10.210;2022-09-09T02:20:36;100408.81;;;13.98;100.00
68793;BME280;55778;54.346;10.210;2022-09-09T02:23:45;100425.59;;;14.03;100.00
68793;BME280;55778;54.346;10.210;2022-09-09T02:26:28;100433.28;;;13.99;100.00
68793;BME280;55778;54.346;10.210;2022-09-09T02:29:54;100425.06;;;14.07;100.00
68793;BME280;55778;54.346;10.210;2022-09-09T02:32:33;100437.25;;;13.97;100.00
68793;BME280;55778;54.346;10.210;2022-09-09T02:35:33;100421.97;;;13.94;100.00
68793;BME280;55778;54.346;10.210;2022-09-09T02:38:21;100420.63;;;13.90;100.00
68793;BME280;55778;54.346;10.210;2022-09-09T02:41:01;100439.94;;;14.05;100.00
68793;BME280;55778;54.346;10.210;2022-09-09T02:43:38;100436.53;;;14.03;100.00
68793;BME280;55778;54.346;10.210;2022-09-09T02:46:32;100437.53;;;14.18;100.00
68793;BME280;55778;54.346;10.210;2022-09-09T02:56:04;100439.72;;;14.23;100.00
68793;BME280;55778;54.346;10.210;2022-09-09T03:01:54;100432.84;;;14.35;100.00
68793;BME280;55778;54.346;10.210;2022-09-09T03:04:23;100437.72;;;14.08;100.00
68793;BME280;55778;54.346;10.210;2022-09-09T03:06:59;100450.72;;;14.15;100.00
68793;BME280;55778;54.346;10.210;2022-09-09T03:10:09;100444.53;;;14.13;100.00
68793;BME280;55778;54.346;10.210;2022-09-09T03:12:53;100442.13;;;14.18;100.00
68793;BME280;55778;54.346;10.210;2022-09-09T03:15:48;100450.88;;;14.21;100.00
68793;BME280;55778;54.346;10.210;2022-09-09T03:18:22;100418.72;;;14.07;100.00
68793;BME280;55778;54.346;10.210;2022-09-09T03:21:10;100414.03;;;14.16;100.00
68793;BME280;55778;54.346;10.210;2022-09-09T03:23:50;100438.84;;;14.30;100.00
68793;BME280;55778;54.346;10.210;2022-09-09T03:26:52;100439.03;;;14.21;100.00
68793;BME280;55778;54.346;10.210;2022-09-09T03:29:26;100427.75;;;14.16;100.00
68793;BME280;55778;54.346;10.210;2022-09-09T03:31:57;100450.69;;;14.23;100.00
68793;BME280;55778;54.346;10.210;2022-09-09T03:35:12;100440.75;;;14.22;100.00
68793;BME280;55778;54.346;10.210;2022-09-09T03:37:58;100448.97;;;14.22;100.00
68793;BME280;55778;54.346;10.210;2022-09-09T03:41:14;100435.50;;;14.04;100.00
68793;BME280;55778;54.346;10.210;2022-09-09T03:43:55;100463.38;;;14.16;100.00
68793;BME280;55778;54.346;10.210;2022-09-09T03:46:42;100454.31;;;14.07;100.00
68793;BME280;55778;54.346;10.210;2022-09-09T03:52:54;100449.03;;;14.05;100.00
68793;BME280;55778;54.346;10.210;2022-09-09T03:55:51;100457.94;;;14.07;100.00
68793;BME280;55778;54.346;10.210;2022-09-09T03:58:39;100452.59;;;14.14;100.00
68793;BME280;55778;54.346;10.210;2022-09-09T04:01:16;100447.50;;;14.03;100.00
68793;BME280;55778;54.346;10.210;2022-09-09T04:06:35;100437.41;;;13.95;100.00
68793;BME280;55778;54.346;10.210;2022-09-09T04:09:23;100445.09;;;14.00;100.00
68793;BME280;55778;54.346;10.210;2022-09-09T04:12:32;100437.06;;;13.98;100.00
68793;BME280;55778;54.346;10.210;2022-09-09T04:15:28;100445.81;;;13.86;100.00
68793;BME280;55778;54.346;10.210;2022-09-09T04:18:35;100458.28;;;13.96;100.00
68793;BME280;55778;54.346;10.210;2022-09-09T04:21:30;100446.50;;;13.88;100.00
68793;BME280;55778;54.346;10.210;2022-09-09T04:24:08;100455.59;;;13.88;100.00
68793;BME280;55778;54.346;10.210;2022-09-09T04:26:48;100453.19;;;13.85;100.00
68793;BME280;55778;54.346;10.210;2022-09-09T04:29:22;100444.47;;;13.90;100.00
68793;BME280;55778;54.346;10.210;2022-09-09T04:32:12;100453.16;;;13.93;100.00
68793;BME280;55778;54.346;10.210;2022-09-09T04:34:54;100456.19;;;14.06;100.00
68793;BME280;55778;54.346;10.210;2022-09-09T04:37:19;100442.03;;;13.95;100.00
68793;BME280;55778;54.346;10.210;2022-09-09T04:39:48;100439.63;;;14.00;100.00
68793;BME280;55778;54.346;10.210;2022-09-09T04:42:41;100463.59;;;13.98;100.00
68793;BME280;55778;54.346;10.210;2022-09-09T04:45:18;100463.06;;;13.94;100.00
68793;BME280;55778;54.346;10.210;2022-09-09T04:47:56;100460.56;;;13.85;100.00
68793;BME280;55778;54.346;10.210;2022-09-09T04:50:21;100457.81;;;13.93;100.00
68793;BME280;55778;54.346;10.210;2022-09-09T04:53:10;100463.59;;;13.98;100.00
68793;BME280;55778;54.346;10.210;2022-09-09T04:55:44;100466.81;;;14.09;100.00
68793;BME280;55778;54.346;10.210;2022-09-09T04:58:15;100463.59;;;14.06;100.00
68793;BME280;55778;54.346;10.210;2022-09-09T05:00:41;100458.81;;;14.00;100.00
68793;BME280;55778;54.346;10.210;2022-09-09T05:03:07;100466.84;;;14.01;100.00
68793;BME280;55778;54.346;10.210;2022-09-09T05:05:34;100477.94;;;14.08;100.00
68793;BME280;55778;54.346;10.210;2022-09-09T05:08:07;100479.34;;;14.12;100.00
68793;BME280;55778;54.346;10.210;2022-09-09T05:10:36;100481.91;;;14.05;100.00
68793;BME280;55778;54.346;10.210;2022-09-09T05:13:02;100484.66;;;13.97;100.00
68793;BME280;55778;54.346;10.210;2022-09-09T05:15:29;100484.81;;;13.96;100.00
68793;BME280;55778;54.346;10.210;2022-09-09T05:17:58;100491.50;;;14.01;100.00
68793;BME280;55778;54.346;10.210;2022-09-09T05:20:24;100493.91;;;14.04;100.00
68793;BME280;55778;54.346;10.210;2022-09-09T05:22:55;100496.31;;;13.99;100.00
68793;BME280;55778;54.346;10.210;2022-09-09T05:25:22;100504.88;;;14.04;100.00
68793;BME280;55778;54.346;10.210;2022-09-09T05:27:49;100497.66;;;14.03;100.00
68793;BME280;55778;54.346;10.210;2022-09-09T05:30:17;100499.38;;;14.04;100.00
68793;BME280;55778;54.346;10.210;2022-09-09T05:32:43;100506.22;;;14.08;100.00
68793;BME280;55778;54.346;10.210;2022-09-09T05:35:09;100498.53;;;14.04;100.00
68793;BME280;55778;54.346;10.210;2022-09-09T05:37:35;100503.66;;;14.07;100.00
68793;BME280;55778;54.346;10.210;2022-09-09T05:40:00;100506.22;;;14.08;100.00
68793;BME280;55778;54.346;10.210;2022-09-09T05:42:30;100507.41;;;14.14;100.00
68793;BME280;55778;54.346;10.210;2022-09-09T05:44:55;100506.03;;;14.18;99.94
68793;BME280;55778;54.346;10.210;2022-09-09T05:47:21;100512.69;;;14.16;100.00
68793;BME280;55778;54.346;10.210;2022-09-09T05:49:46;100519.03;;;14.16;100.00
68793;BME280;55778;54.346;10.210;2022-09-09T05:52:14;100510.13;;;14.14;100.00
68793;BME280;55778;54.346;10.210;2022-09-09T05:54:39;100511.00;;;14.15;100.00
68793;BME280;55778;54.346;10.210;2022-09-09T05:57:06;100514.78;;;14.14;100.00
68793;BME280;55778;54.346;10.210;2022-09-09T05:59:32;100509.97;;;14.24;100.00
68793;BME280;55778;54.346;10.210;2022-09-09T06:01:57;100513.41;;;14.26;100.00
68793;BME280;55778;54.346;10.210;2022-09-09T06:04:22;100508.44;;;14.21;100.00
68793;BME280;55778;54.346;10.210;2022-09-09T06:06:50;100516.81;;;14.20;100.00
68793;BME280;55778;54.346;10.210;2022-09-09T06:09:17;100515.09;;;14.19;100.00
68793;BME280;55778;54.346;10.210;2022-09-09T06:11:43;100506.75;;;14.12;100.00
68793;BME280;55778;54.346;10.210;2022-09-09T06:14:11;100506.22;;;14.08;100.00
68793;BME280;55778;54.346;10.210;2022-09-09T06:16:37;100513.41;;;14.09;100.00
68793;BME280;55778;54.346;10.210;2022-09-09T06:19:02;100520.22;;;14.22;100.00
68793;BME280;55778;54.346;10.210;2022-09-09T06:21:36;100525.72;;;14.22;100.00
68793;BME280;55778;54.346;10.210;2022-09-09T06:24:02;100522.66;;;14.25;100.00
68793;BME280;55778;54.346;10.210;2022-09-09T06:26:33;100530.53;;;14.28;100.00
68793;BME280;55778;54.346;10.210;2022-09-09T06:28:59;100538.75;;;14.28;100.00
68793;BME280;55778;54.346;10.210;2022-09-09T06:31:27;100534.78;;;14.30;100.00
68793;BME280;55778;54.346;10.210;2022-09-09T06:33:56;100534.25;;;14.35;100.00
68793;BME280;55778;54.346;10.210;2022-09-09T06:36:24;100539.75;;;14.35;100.00
68793;BME280;55778;54.346;10.210;2022-09-09T06:38:50;100531.50;;;14.43;100.00
68793;BME280;55778;54.346;10.210;2022-09-09T06:41:17;100545.38;;;14.49;100.00
68793;BME280;55778;54.346;10.210;2022-09-09T06:43:44;100530.81;;;14.49;100.00
68793;BME280;55778;54.346;10.210;2022-09-09T06:46:16;100536.28;;;14.57;99.76
68793;BME280;55778;54.346;10.210;2022-09-09T06:48:43;100527.38;;;14.55;100.00
68793;BME280;55778;54.346;10.210;2022-09-09T06:51:17;100535.94;;;14.60;100.00
68793;BME280;55778;54.346;10.210;2022-09-09T06:53:44;100531.44;;;14.59;99.75
68793;BME280;55778;54.346;10.210;2022-09-09T06:58:45;100541.78;;;14.49;100.00
68793;BME280;55778;54.346;10.210;2022-09-09T07:01:12;100534.25;;;14.51;100.00
68793;BME280;55778;54.346;10.210;2022-09-09T07:03:39;100542.47;;;14.51;100.00
68793;BME280;55778;54.346;10.210;2022-09-09T07:06:05;100537.47;;;14.54;100.00
68793;BME280;55778;54.346;10.210;2022-09-09T07:08:31;100541.91;;;14.63;100.00
68793;BME280;55778;54.346;10.210;2022-09-09T07:11:08;100539.97;;;14.72;100.00
68793;BME280;55778;54.346;10.210;2022-09-09T07:13:34;100537.19;;;14.80;100.00
68793;BME280;55778;54.346;10.210;2022-09-09T07:16:10;100532.69;;;14.87;98.87
68793;BME280;55778;54.346;10.210;2022-09-09T07:18:36;100529.59;;;14.90;99.39
68793;BME280;55778;54.346;10.210;2022-09-09T07:21:02;100536.91;;;15.05;98.88
68793;BME280;55778;54.346;10.210;2022-09-09T07:23:29;100543.59;;;15.33;99.11
68793;BME280;55778;54.346;10.210;2022-09-09T07:25:55;100539.69;;;15.58;97.40
68793;BME280;55778;54.346;10.210;2022-09-09T07:28:22;100539.50;;;15.60;96.50
68793;BME280;55778;54.346;10.210;2022-09-09T07:30:59;100537.84;;;15.73;95.79
68793;BME280;55778;54.346;10.210;2022-09-09T07:33:25;100538.31;;;15.77;94.52
68793;BME280;55778;54.346;10.210;2022-09-09T07:35:51;100546.63;;;15.91;94.25
68793;BME280;55778;54.346;10.210;2022-09-09T07:38:18;100536.47;;;15.92;94.48
68793;BME280;55778;54.346;10.210;2022-09-09T07:40:44;100541.53;;;16.03;93.98
68793;BME280;55778;54.346;10.210;2022-09-09T07:43:09;100545.41;;;16.09;92.78
68793;BME280;55778;54.346;10.210;2022-09-09T07:45:35;100556.78;;;16.06;92.77
68793;BME280;55778;54.346;10.210;2022-09-09T07:48:01;100547.41;;;16.00;92.23
68793;BME280;55778;54.346;10.210;2022-09-09T07:50:27;100559.91;;;16.02;92.86
68793;BME280;55778;54.346;10.210;2022-09-09T07:52:53;100553.66;;;16.09;92.13
68793;BME280;55778;54.346;10.210;2022-09-09T07:55:20;100559.56;;;16.20;92.40
68793;BME280;55778;54.346;10.210;2022-09-09T07:57:45;100551.06;;;16.30;91.82
68793;BME280;55778;54.346;10.210;2022-09-09T08:00:12;100552.44;;;16.48;91.14
68793;BME280;55778;54.346;10.210;2022-09-09T08:02:40;100556.97;;;16.56;90.57
68793;BME280;55778;54.346;10.210;2022-09-09T08:05:05;100565.34;;;16.48;89.05
68793;BME280;55778;54.346;10.210;2022-09-09T08:07:31;100559.53;;;16.57;90.34
68793;BME280;55778;54.346;10.210;2022-09-09T08:09:57;100553.00;;;16.73;88.53
68793;BME280;55778;54.346;10.210;2022-09-09T08:12:22;100561.16;;;16.95;88.43
68793;BME280;55778;54.346;10.210;2022-09-09T08:14:48;100548.50;;;17.01;85.75
68793;BME280;55778;54.346;10.210;2022-09-09T08:17:14;100557.91;;;17.06;85.63
68793;BME280;55778;54.346;10.210;2022-09-09T08:19:39;100555.34;;;17.05;85.26
68793;BME280;55778;54.346;10.210;2022-09-09T08:22:05;100555.44;;;17.11;85.63
68793;BME280;55778;54.346;10.210;2022-09-09T08:24:30;100553.38;;;17.34;86.10
68793;BME280;55778;54.346;10.210;2022-09-09T08:26:55;100545.44;;;17.60;84.97
68793;BME280;55778;54.346;10.210;2022-09-09T08:29:22;100541.50;;;17.69;83.18
68793;BME280;55778;54.346;10.210;2022-09-09T08:31:53;100553.03;;;18.01;83.28
68793;BME280;55778;54.346;10.210;2022-09-09T08:34:20;100568.59;;;18.08;82.17
68793;BME280;55778;54.346;10.210;2022-09-09T08:36:47;100563.88;;;18.30;81.54
68793;BME280;55778;54.346;10.210;2022-09-09T08:39:18;100560.25;;;18.50;81.82
68793;BME280;55778;54.346;10.210;2022-09-09T08:44:59;100571.63;;;18.68;78.91
68793;BME280;55778;54.346;10.210;2022-09-09T08:50:34;100572.50;;;18.69;78.21
68793;BME280;55778;54.346;10.210;2022-09-09T08:53:27;100580.03;;;18.54;78.31
68793;BME280;55778;54.346;10.210;2022-09-09T08:56:01;100575.59;;;18.32;79.73
68793;BME280;55778;54.346;10.210;2022-09-09T08:58:33;100569.03;;;18.12;81.37
68793;BME280;55778;54.346;10.210;2022-09-09T09:12:23;100585.44;;;17.92;82.64
68793;BME280;55778;54.346;10.210;2022-09-09T09:14:50;100586.13;;;18.01;82.21
68793;BME280;55778;54.346;10.210;2022-09-09T09:17:18;100595.72;;;18.05;81.37
68793;BME280;55778;54.346;10.210;2022-09-09T09:19:46;100593.34;;;18.02;81.42
68793;BME280;55778;54.346;10.210;2022-09-09T09:22:18;100596.31;;;18.00;81.61
68793;BME280;55778;54.346;10.210;2022-09-09T09:24:53;100598.16;;;18.14;82.04
68793;BME280;55778;54.346;10.210;2022-09-09T09:27:32;100600.03;;;18.14;80.45
68793;BME280;55778;54.346;10.210;2022-09-09T09:30:00;100602.59;;;18.15;82.14
68793;BME280;55778;54.346;10.210;2022-09-09T09:32:28;100602.31;;;18.31;82.07
68793;BME280;55778;54.346;10.210;2022-09-09T09:34:57;100602.03;;;18.47;80.08
68793;BME280;55778;54.346;10.210;2022-09-09T09:37:30;100597.47;;;18.61;79.46
68793;BME280;55778;54.346;10.210;2022-09-09T09:40:07;100595.53;;;18.55;78.93
68793;BME280;55778;54.346;10.210;2022-09-09T09:42:34;100600.69;;;18.64;79.66
68793;BME280;55778;54.346;10.210;2022-09-09T09:45:23;100599.78;;;18.85;79.41
68793;BME280;55778;54.346;10.210;2022-09-09T09:48:00;100598.88;;;19.12;80.30
68793;BME280;55778;54.346;10.210;2022-09-09T09:50:27;100600.13;;;19.50;74.99
68793;BME280;55778;54.346;10.210;2022-09-09T09:52:58;100600.25;;;19.29;75.03
68793;BME280;55778;54.346;10.210;2022-09-09T09:55:25;100598.22;;;19.50;75.64
68793;BME280;55778;54.346;10.210;2022-09-09T09:57:51;100592.56;;;19.71;74.44
68793;BME280;55778;54.346;10.210;2022-09-09T10:00:22;100600.03;;;19.97;74.15
68793;BME280;55778;54.346;10.210;2022-09-09T10:02:49;100595.00;;;20.20;72.65
68793;BME280;55778;54.346;10.210;2022-09-09T10:05:23;100589.25;;;20.22;73.46
68793;BME280;55778;54.346;10.210;2022-09-09T10:08:01;100598.41;;;20.48;70.03
68793;BME280;55778;54.346;10.210;2022-09-09T10:10:37;100595.81;;;20.73;69.42
68793;BME280;55778;54.346;10.210;2022-09-09T10:13:18;100603.22;;;21.11;69.47
68793;BME280;55778;54.346;10.210;2022-09-09T10:21:31;100594.44;;;21.72;64.93
68793;BME280;55778;54.346;10.210;2022-09-09T10:29:38;100591.47;;;21.66;63.50
68793;BME280;55778;54.346;10.210;2022-09-09T10:35:08;100587.22;;;22.02;62.97
68793;BME280;55778;54.346;10.210;2022-09-09T10:43:09;100588.28;;;22.81;59.09
68793;BME280;55778;54.346;10.210;2022-09-09T10:45:49;100583.38;;;22.83;58.78
68793;BME280;55778;54.346;10.210;2022-09-09T10:51:56;100597.06;;;23.02;59.23
68793;BME280;55778;54.346;10.210;2022-09-09T10:54:41;100586.84;;;23.69;56.30
68793;BME280;55778;54.346;10.210;2022-09-09T10:59:46;100590.00;;;23.72;54.91
68793;BME280;55778;54.346;10.210;2022-09-09T11:02:17;100593.28;;;23.51;56.50
68793;BME280;55778;54.346;10.210;2022-09-09T11:07:25;100593.94;;;23.35;57.98
68793;BME280;55778;54.346;10.210;2022-09-09T11:10:00;100588.72;;;24.16;55.21
68793;BME280;55778;54.346;10.210;2022-09-09T11:12:27;100591.44;;;23.93;55.57
68793;BME280;55778;54.346;10.210;2022-09-09T11:15:14;100586.34;;;24.31;51.96
68793;BME280;55778;54.346;10.210;2022-09-09T11:17:49;100594.69;;;23.90;52.72
68793;BME280;55778;54.346;10.210;2022-09-09T11:20:16;100604.53;;;23.56;54.48
68793;BME280;55778;54.346;10.210;2022-09-09T11:22:49;100596.81;;;23.58;53.31
68793;BME280;55778;54.346;10.210;2022-09-09T11:25:26;100606.09;;;23.52;54.79
68793;BME280;55778;54.346;10.210;2022-09-09T11:28:28;100602.41;;;23.58;52.85
68793;BME280;55778;54.346;10.210;2022-09-09T11:33:55;100602.53;;;24.11;52.53
68793;BME280;55778;54.346;10.210;2022-09-09T11:41:44;100603.97;;;26.14;46.89
68793;BME280;55778;54.346;10.210;2022-09-09T11:44:18;100605.66;;;26.60;44.44
68793;BME280;55778;54.346;10.210;2022-09-09T11:46:50;100598.69;;;26.46;45.33
68793;BME280;55778;54.346;10.210;2022-09-09T11:51:56;100600.69;;;25.50;47.94
68793;BME280;55778;54.346;10.210;2022-09-09T11:54:30;100604.44;;;26.23;46.26
68793;BME280;55778;54.346;10.210;2022-09-09T11:56:57;100604.25;;;25.73;46.31
68793;BME280;55778;54.346;10.210;2022-09-09T11:59:25;100606.97;;;26.57;44.43
68793;BME280;55778;54.346;10.210;2022-09-09T12:01:57;100602.84;;;26.60;44.84
68793;BME280;55778;54.346;10.210;2022-09-09T12:06:53;100615.22;;;25.63;46.46
68793;BME280;55778;54.346;10.210;2022-09-09T12:12:21;100615.03;;;24.95;49.80
68793;BME280;55778;54.346;10.210;2022-09-09T12:15:22;100610.78;;;25.27;48.09
68793;BME280;55778;54.346;10.210;2022-09-09T12:17:52;100616.13;;;24.83;49.21
68793;BME280;55778;54.346;10.210;2022-09-09T12:31:24;100616.19;;;23.35;54.38
68793;BME280;55778;54.346;10.210;2022-09-09T12:33:52;100615.66;;;23.74;51.45
68793;BME280;55778;54.346;10.210;2022-09-09T12:36:20;100616.09;;;23.89;52.85
68793;BME280;55778;54.346;10.210;2022-09-09T12:38:46;100615.69;;;23.56;55.08
68793;BME280;55778;54.346;10.210;2022-09-09T12:41:30;100602.41;;;24.06;53.42
68793;BME280;55778;54.346;10.210;2022-09-09T12:44:06;100608.38;;;24.21;54.19
68793;BME280;55778;54.346;10.210;2022-09-09T12:46:40;100606.94;;;24.18;49.57
68793;BME280;55778;54.346;10.210;2022-09-09T12:49:24;100610.69;;;23.94;48.82
68793;BME280;55778;54.346;10.210;2022-09-09T12:51:51;100607.28;;;23.92;48.65
68793;BME280;55778;54.346;10.210;2022-09-09T12:54:17;100609.66;;;23.59;49.13
68793;BME280;55778;54.346;10.210;2022-09-09T12:56:46;100606.34;;;23.50;50.79
68793;BME280;55778;54.346;10.210;2022-09-09T12:59:25;100607.13;;;23.39;50.40
68793;BME280;55778;54.346;10.210;2022-09-09T13:01:58;100602.22;;;23.17;52.43
68793;BME280;55778;54.346;10.210;2022-09-09T13:04:23;100595.25;;;22.90;52.08
68793;BME280;55778;54.346;10.210;2022-09-09T13:06:49;100601.00;;;22.70;52.67
68793;BME280;55778;54.346;10.210;2022-09-09T13:09:15;100589.56;;;22.60;53.29
68793;BME280;55778;54.346;10.210;2022-09-09T13:11:51;100591.03;;;22.38;54.03
68793;BME280;55778;54.346;10.210;2022-09-09T13:14:29;100593.22;;;22.30;55.09
68793;BME280;55778;54.346;10.210;2022-09-09T13:16:59;100590.38;;;22.12;54.86
68793;BME280;55778;54.346;10.210;2022-09-09T13:19:28;100580.16;;;22.06;55.69
68793;BME280;55778;54.346;10.210;2022-09-09T13:21:55;100578.44;;;22.05;55.29
68793;BME280;55778;54.346;10.210;2022-09-09T13:26:59;100584.72;;;22.49;52.88
68793;BME280;55778;54.346;10.210;2022-09-09T13:29:30;100584.91;;;22.54;53.75
68793;BME280;55778;54.346;10.210;2022-09-09T13:32:15;100584.88;;;22.61;54.80
68793;BME280;55778;54.346;10.210;2022-09-09T13:34:54;100594.06;;;22.30;53.77
68793;BME280;55778;54.346;10.210;2022-09-09T13:39:53;100591.97;;;22.26;54.60
68793;BME280;55778;54.346;10.210;2022-09-09T13:42:25;100592.84;;;22.20;54.36
68793;BME280;55778;54.346;10.210;2022-09-09T13:44:51;100592.25;;;22.18;55.00
68793;BME280;55778;54.346;10.210;2022-09-09T13:47:21;100582.75;;;22.01;55.59
68793;BME280;55778;54.346;10.210;2022-09-09T13:49:51;100576.28;;;22.13;54.42
68793;BME280;55778;54.346;10.210;2022-09-09T13:52:18;100582.38;;;22.22;54.34
68793;BME280;55778;54.346;10.210;2022-09-09T13:54:51;100579.06;;;22.13;55.34
68793;BME280;55778;54.346;10.210;2022-09-09T13:57:18;100577.06;;;22.20;55.51
68793;BME280;55778;54.346;10.210;2022-09-09T13:59:48;100582.94;;;22.06;54.78
68793;BME280;55778;54.346;10.210;2022-09-09T14:02:14;100590.97;;;22.14;55.29
68793;BME280;55778;54.346;10.210;2022-09-09T14:04:40;100585.97;;;21.98;55.30
68793;BME280;55778;54.346;10.210;2022-09-09T14:07:10;100584.28;;;21.97;56.38
68793;BME280;55778;54.346;10.210;2022-09-09T14:09:36;100586.94;;;22.16;56.27
68793;BME280;55778;54.346;10.210;2022-09-09T14:12:01;100600.44;;;22.06;56.37
68793;BME280;55778;54.346;10.210;2022-09-09T14:14:27;100598.84;;;21.92;56.45
68793;BME280;55778;54.346;10.210;2022-09-09T14:16:52;100602.50;;;21.86;57.47
68793;BME280;55778;54.346;10.210;2022-09-09T14:19:18;100590.59;;;21.73;57.62
68793;BME280;55778;54.346;10.210;2022-09-09T14:21:43;100593.94;;;21.88;58.30
68793;BME280;55778;54.346;10.210;2022-09-09T14:24:08;100579.81;;;21.96;58.86
68793;BME280;55778;54.346;10.210;2022-09-09T14:26:34;100590.00;;;21.64;60.21
68793;BME280;55778;54.346;10.210;2022-09-09T14:28:59;100593.09;;;21.36;56.98
68793;BME280;55778;54.346;10.210;2022-09-09T14:31:26;100602.16;;;21.12;56.13
68793;BME280;55778;54.346;10.210;2022-09-09T14:33:52;100596.22;;;20.89;55.58
68793;BME280;55778;54.346;10.210;2022-09-09T14:36:18;100588.59;;;20.78;54.48
68793;BME280;55778;54.346;10.210;2022-09-09T14:38:44;100589.22;;;20.74;56.09
68793;BME280;55778;54.346;10.210;2022-09-09T14:41:11;100591.81;;;20.43;57.66
68793;BME280;55778;54.346;10.210;2022-09-09T14:43:38;100584.38;;;20.37;58.29
68793;BME280;55778;54.346;10.210;2022-09-09T14:46:05;100597.09;;;20.12;61.38
68793;BME280;55778;54.346;10.210;2022-09-09T14:48:31;100583.66;;;19.89;65.79
68793;BME280;55778;54.346;10.210;2022-09-09T14:51:14;100591.47;;;19.66;66.63
68793;BME280;55778;54.346;10.210;2022-09-09T14:53:41;100594.97;;;19.34;70.59
68793;BME280;55778;54.346;10.210;2022-09-09T14:56:11;100601.22;;;19.15;72.54
68793;BME280;55778;54.346;10.210;2022-09-09T14:58:39;100586.44;;;18.88;73.63
68793;BME280;55778;54.346;10.210;2022-09-09T15:01:16;100585.50;;;18.81;75.56
68793;BME280;55778;54.346;10.210;2022-09-09T15:03:47;100583.94;;;18.66;77.64
68793;BME280;55778;54.346;10.210;2022-09-09T15:06:14;100589.81;;;18.56;77.18
68793;BME280;55778;54.346;10.210;2022-09-09T15:08:41;100594.59;;;18.75;77.78
68793;BME280;55778;54.346;10.210;2022-09-09T15:11:08;100590.59;;;18.78;78.07
68793;BME280;55778;54.346;10.210;2022-09-09T15:13:35;100593.78;;;18.75;76.72
68793;BME280;55778;54.346;10.210;2022-09-09T15:18:34;100599.94;;;18.49;77.11
68793;BME280;55778;54.346;10.210;2022-09-09T15:21:04;100603.09;;;18.46;77.67
68793;BME280;55778;54.346;10.210;2022-09-09T15:23:33;100613.09;;;18.47;79.33
68793;BME280;55778;54.346;10.210;2022-09-09T15:25:59;100622.09;;;18.35;76.50
68793;BME280;55778;54.346;10.210;2022-09-09T15:28:24;100632.22;;;18.28;76.94
68793;BME280;55778;54.346;10.210;2022-09-09T15:30:51;100634.44;;;18.18;75.92
68793;BME280;55778;54.346;10.210;2022-09-09T15:33:20;100637.78;;;18.13;78.37
68793;BME280;55778;54.346;10.210;2022-09-09T15:35:46;100659.00;;;17.92;79.78